Time;durP1;ratioP1;P1;durP2;ratioP2;P2;SDS_P1;SDS_P2;PMS_P1;PMS_P2;Temp;Humidity;BMP_temperature;BMP_pressure;BME280_temperature;BME280_humidity;BME280_pressure;Samples;Min_cycle;Max_cycle;Signal;HPM_P1;HPM_P2
2021/08/27 00:01:02;;;;;;;5.50;2.58;;;;;;;13.16;90.93;98552.91;5014086;28;20034;-72
2021/08/27 00:03:27;;;;;;;8.35;2.53;;;;;;;13.08;91.24;98555.91;5006287;28;20590;-72
2021/08/27 00:05:52;;;;;;;5.75;2.50;;;;;;;13.03;91.53;98561.19;5014229;28;20044;-72
2021/08/27 00:08:17;;;;;;;6.22;2.60;;;;;;;12.94;90.47;98530.78;5000760;28;20035;-72
2021/08/27 00:10:43;;;;;;;6.80;2.75;;;;;;;12.90;90.77;98546.69;4994954;28;20023;-72
2021/08/27 00:13:12;;;;;;;8.23;3.30;;;;;;;12.83;91.64;98550.53;5003339;28;20029;-72
2021/08/27 00:15:37;;;;;;;10.70;3.10;;;;;;;12.88;91.49;98556.94;5013087;28;20547;-72
2021/08/27 00:18:03;;;;;;;4.93;2.88;;;;;;;12.75;92.32;98539.97;5014872;28;20030;-72
2021/08/27 00:20:29;;;;;;;5.78;2.90;;;;;;;12.86;92.35;98550.06;5013981;28;20386;-71
2021/08/27 00:22:54;;;;;;;8.07;2.80;;;;;;;12.81;92.87;98558.91;5013827;28;20076;-71
2021/08/27 00:25:19;;;;;;;5.05;2.58;;;;;;;12.85;93.06;98548.44;5014007;28;20512;-72
2021/08/27 00:27:45;;;;;;;6.38;2.67;;;;;;;12.87;93.06;98549.88;5014782;28;20026;-72
2021/08/27 00:30:10;;;;;;;3.83;2.22;;;;;;;12.89;93.11;98542.34;4994652;28;20026;-71
2021/08/27 00:32:36;;;;;;;6.97;2.28;;;;;;;13.04;92.90;98568.28;4997341;28;20781;-71
2021/08/27 00:35:05;;;;;;;4.45;2.40;;;;;;;13.01;92.65;98566.00;5013884;28;20033;-72
2021/08/27 00:37:31;;;;;;;4.20;2.58;;;;;;;13.04;93.17;98551.97;5014289;28;20022;-72
2021/08/27 00:39:57;;;;;;;8.73;2.75;;;;;;;13.07;93.89;98559.69;5012981;28;20041;-72
2021/08/27 00:42:23;;;;;;;5.82;2.67;;;;;;;13.15;94.69;98573.81;5012559;28;20022;-72
2021/08/27 00:44:48;;;;;;;6.38;2.80;;;;;;;13.15;95.88;98568.38;5009677;28;20488;-72
2021/08/27 00:47:14;;;;;;;6.70;2.58;;;;;;;13.14;96.66;98576.75;4998827;28;20037;-72
2021/08/27 00:49:39;;;;;;;5.13;2.80;;;;;;;13.14;97.71;98580.28;5016737;28;20026;-72
2021/08/27 00:52:06;;;;;;;5.63;2.47;;;;;;;13.13;98.60;98573.19;5011620;28;20087;-72
2021/08/27 00:54:32;;;;;;;3.97;2.47;;;;;;;13.00;98.58;98548.06;5011504;28;20022;-71
2021/08/27 00:56:57;;;;;;;7.38;3.20;;;;;;;13.06;99.12;98560.75;5012196;28;20038;-71
2021/08/27 00:59:24;;;;;;;4.10;2.63;;;;;;;13.03;99.08;98559.31;5013641;28;20063;-71
2021/08/27 01:01:49;;;;;;;6.32;3.08;;;;;;;13.03;99.65;98559.31;5007729;28;20034;-72
2021/08/27 01:04:15;;;;;;;8.95;3.20;;;;;;;13.09;100.00;98568.44;5006395;28;20029;-71
2021/08/27 01:06:57;;;;;;;8.93;2.85;;;;;;;13.06;100.00;98571.59;5013849;28;20479;-72
2021/08/27 01:09:37;;;;;;;7.05;3.08;;;;;;;12.97;100.00;98567.50;5011940;28;20403;-72
2021/08/27 01:12:08;;;;;;;8.02;3.38;;;;;;;13.08;100.00;98570.31;5012375;28;20114;-72
2021/08/27 01:14:40;;;;;;;9.20;3.33;;;;;;;12.90;100.00;98575.75;5011573;28;20026;-72
2021/08/27 01:17:20;;;;;;;6.50;3.25;;;;;;;12.82;100.00;98582.28;5013174;28;20057;-72
2021/08/27 01:20:10;;;;;;;6.95;3.40;;;;;;;12.81;100.00;98580.63;5003833;28;20557;-72
2021/08/27 01:22:53;;;;;;;6.43;3.08;;;;;;;12.89;100.00;98582.19;5012438;28;20030;-72
2021/08/27 01:25:21;;;;;;;6.60;3.22;;;;;;;12.84;100.00;98585.59;5013124;28;20026;-72
2021/08/27 01:27:49;;;;;;;9.23;3.40;;;;;;;12.80;100.00;98581.66;5013359;28;20025;-72
2021/08/27 01:30:29;;;;;;;7.80;3.72;;;;;;;12.74;100.00;98585.28;5013693;28;20388;-72
2021/08/27 01:33:07;;;;;;;6.75;3.50;;;;;;;12.72;100.00;98581.94;5012502;28;20026;-72
2021/08/27 01:35:34;;;;;;;4.80;3.58;;;;;;;12.68;100.00;98576.16;5027739;28;20109;-72
2021/08/27 01:38:04;;;;;;;6.95;3.35;;;;;;;12.72;100.00;98581.94;5004704;28;20388;-72
2021/08/27 01:40:31;;;;;;;6.68;4.13;;;;;;;12.73;100.00;98583.59;4999293;28;20050;-72
2021/08/27 01:42:57;;;;;;;6.97;3.63;;;;;;;12.68;100.00;98578.00;5012677;28;20029;-72
2021/08/27 01:45:23;;;;;;;9.35;3.70;;;;;;;12.65;100.00;98562.19;5004950;28;20056;-72
2021/08/27 01:47:48;;;;;;;9.80;4.15;;;;;;;12.63;100.00;98569.72;4993426;28;20062;-72
2021/08/27 01:50:14;;;;;;;7.72;3.45;;;;;;;12.68;100.00;98569.88;5012678;28;20038;-72
2021/08/27 01:52:41;;;;;;;9.38;3.30;;;;;;;12.86;100.00;98586.22;5012326;28;20045;-72
2021/08/27 01:55:09;;;;;;;6.68;3.20;;;;;;;12.85;100.00;98565.53;4998410;28;20022;-73
2021/08/27 01:57:39;;;;;;;9.00;3.55;;;;;;;12.76;100.00;98572.31;5011091;28;20021;-72
2021/08/27 02:00:06;;;;;;;7.72;3.55;;;;;;;12.82;100.00;98582.28;5012684;28;20022;-72
2021/08/27 02:02:33;;;;;;;10.93;3.70;;;;;;;12.79;100.00;98571.06;5012403;28;20419;-72
2021/08/27 02:05:02;;;;;;;8.13;3.60;;;;;;;12.80;100.00;98587.09;5012420;28;20030;-72
2021/08/27 02:07:27;;;;;;;;;;;;;;;12.88;100.00;98588.69;5010623;28;20137;-72
2021/08/27 02:09:55;;;;;;;5.57;3.75;;;;;;;12.69;100.00;98566.94;5010746;28;20410;-72
2021/08/27 02:12:21;;;;;;;10.13;3.35;;;;;;;12.72;100.00;98577.34;5011186;28;20128;-72
2021/08/27 02:14:50;;;;;;;4.70;3.20;;;;;;;12.73;100.00;98583.59;5014227;28;20026;-72
2021/08/27 02:17:16;;;;;;;9.23;3.40;;;;;;;12.68;100.00;98572.59;5010604;28;20030;-72
2021/08/27 02:19:42;;;;;;;14.30;3.60;;;;;;;12.62;100.00;98573.47;4994645;28;20022;-72
2021/08/27 02:22:12;;;;;;;6.95;3.30;;;;;;;12.53;100.00;98572.13;5012450;28;20053;-72
2021/08/27 02:24:50;;;;;;;5.30;3.40;;;;;;;12.47;100.00;98576.53;5012775;28;20076;-72
2021/08/27 02:27:18;;;;;;;12.07;3.20;;;;;;;12.48;100.00;98578.19;5016322;28;20113;-72
2021/08/27 02:29:45;;;;;;;6.10;3.25;;;;;;;12.56;100.00;98585.22;5004418;28;20049;-72
2021/08/27 02:32:12;;;;;;;7.25;3.42;;;;;;;12.50;100.00;98568.78;5014789;28;20105;-72
2021/08/27 02:34:42;;;;;;;10.65;3.33;;;;;;;12.49;100.00;98553.53;5011719;28;20026;-72
2021/08/27 02:37:09;;;;;;;8.13;3.63;;;;;;;12.56;100.00;98571.66;5014905;28;20060;-72
2021/08/27 02:39:35;;;;;;;6.47;3.42;;;;;;;12.52;100.00;98554.97;5016075;28;20506;-72
2021/08/27 02:42:01;;;;;;;8.05;3.63;;;;;;;12.58;100.00;98570.41;5015685;28;20109;-72
2021/08/27 02:44:26;;;;;;;6.43;3.95;;;;;;;12.56;100.00;98566.25;5015901;28;20117;-73
2021/08/27 02:46:52;;;;;;;7.93;3.97;;;;;;;12.54;100.00;98579.19;5015990;28;20140;-72
2021/08/27 02:49:17;;;;;;;7.40;3.70;;;;;;;12.52;100.00;98567.72;4996431;28;20498;-72
2021/08/27 02:52:12;;;;;;;10.02;4.00;;;;;;;12.54;100.00;98577.31;5014756;28;20033;-72
2021/08/27 02:54:55;;;;;;;6.82;3.80;;;;;;;12.49;100.00;98577.97;5014065;28;20056;-72
2021/08/27 02:57:22;;;;;;;6.47;3.85;;;;;;;12.46;100.00;98575.69;5015789;28;20072;-72
2021/08/27 02:59:48;;;;;;;8.10;3.97;;;;;;;12.37;100.00;98571.59;5001140;28;20037;-72
2021/08/27 03:02:16;;;;;;;10.80;4.32;;;;;;;12.41;100.00;98588.25;5011869;28;20042;-72
2021/08/27 03:04:53;;;;;;;8.07;3.80;;;;;;;12.40;100.00;98586.63;5014857;28;20475;-72
2021/08/27 03:07:23;;;;;;;8.25;3.63;;;;;;;12.32;100.00;98574.16;5015888;28;20052;-72
2021/08/27 03:10:04;;;;;;;9.63;4.15;;;;;;;12.29;100.00;98582.72;5015497;28;20022;-72
2021/08/27 03:12:46;;;;;;;6.20;3.80;;;;;;;12.29;100.00;98580.03;5015515;28;20076;-72
2021/08/27 03:15:26;;;;;;;7.90;4.03;;;;;;;12.28;100.00;98581.88;5015358;28;20034;-72
2021/08/27 03:17:53;;;;;;;7.00;3.53;;;;;;;12.35;100.00;98571.00;5011197;28;20034;-72
2021/08/27 03:20:25;;;;;;;8.13;4.38;;;;;;;12.38;100.00;98565.13;5013984;28;20608;-72
2021/08/27 03:23:05;;;;;;;10.25;4.35;;;;;;;12.35;100.00;98568.28;5015087;28;20056;-72
2021/08/27 03:25:35;;;;;;;7.13;3.90;;;;;;;12.42;100.00;98570.94;5015304;28;20061;-72
2021/08/27 03:28:07;;;;;;;11.70;4.63;;;;;;;12.37;100.00;98560.75;5015492;28;20030;-72
2021/08/27 03:30:33;;;;;;;9.57;4.07;;;;;;;12.48;100.00;98570.88;5012796;28;20021;-72
2021/08/27 03:33:03;;;;;;;9.23;4.43;;;;;;;12.52;100.00;98567.72;5015418;28;20472;-72
2021/08/27 03:35:29;;;;;;;7.05;3.95;;;;;;;12.49;100.00;98561.69;5011613;28;20026;-72
2021/08/27 03:37:56;;;;;;;7.47;4.10;;;;;;;12.46;100.00;98553.16;4994339;28;20109;-72
2021/08/27 03:40:23;;;;;;;13.07;4.03;;;;;;;12.54;100.00;98565.63;5014111;28;20379;-72
2021/08/27 03:42:50;;;;;;;7.43;3.70;;;;;;;12.51;100.00;98558.75;5004966;28;20029;-72
2021/08/27 03:45:18;;;;;;;6.22;4.05;;;;;;;12.58;100.00;98580.44;5014718;28;20553;-72
2021/08/27 03:47:44;;;;;;;6.18;3.78;;;;;;;12.53;100.00;98577.53;5013099;28;20590;-72
2021/08/27 03:50:11;;;;;;;8.75;4.43;;;;;;;12.49;100.00;98575.25;5014877;28;20076;-72
2021/08/27 03:52:40;;;;;;;10.52;5.20;;;;;;;12.49;100.00;98582.56;5013784;28;20071;-72
2021/08/27 03:55:06;;;;;;;7.20;4.32;;;;;;;12.46;100.00;98578.41;5015849;28;20035;-72
2021/08/27 03:57:31;;;;;;;9.73;4.65;;;;;;;12.45;100.00;98584.91;5021052;28;20026;-72
2021/08/27 03:59:59;;;;;;;7.63;4.35;;;;;;;12.48;100.00;98587.16;5014316;28;20388;-72
2021/08/27 04:02:26;;;;;;;8.60;4.90;;;;;;;12.52;100.00;98581.28;5014762;28;20108;-72
2021/08/27 04:05:06;;;;;;;10.40;4.78;;;;;;;12.44;100.00;98571.53;5014746;28;20095;-72
2021/08/27 04:07:32;;;;;;;11.15;4.90;;;;;;;12.46;100.00;98567.56;5014499;28;20030;-72
2021/08/27 04:09:57;;;;;;;8.48;5.03;;;;;;;12.49;100.00;98572.53;5013620;28;20029;-72
2021/08/27 04:12:22;;;;;;;7.32;4.43;;;;;;;12.49;100.00;98582.56;5013605;28;20025;-72
2021/08/27 04:14:48;;;;;;;10.00;4.40;;;;;;;12.51;100.00;98572.31;5014774;28;20022;-72
2021/08/27 04:17:13;;;;;;;10.23;4.95;;;;;;;12.45;100.00;98579.47;5014641;28;20049;-72
2021/08/27 04:19:38;;;;;;;8.02;4.35;;;;;;;12.40;100.00;98579.31;5014511;28;20419;-72
2021/08/27 04:22:04;;;;;;;11.63;4.97;;;;;;;12.33;100.00;98578.50;5014739;28;20030;-72
2021/08/27 04:24:29;;;;;;;10.00;5.30;;;;;;;12.24;100.00;98579.84;5014497;28;20357;-72
2021/08/27 04:26:54;;;;;;;12.18;5.07;;;;;;;12.18;100.00;98578.00;5011618;28;20030;-72
2021/08/27 04:29:19;;;;;;;10.38;4.93;;;;;;;12.15;100.00;98581.16;5015197;28;20026;-72
2021/08/27 04:31:45;;;;;;;7.57;4.90;;;;;;;12.10;100.00;98583.69;5015614;28;20399;-72
2021/08/27 04:34:10;;;;;;;12.85;5.63;;;;;;;12.03;100.00;98579.16;5015714;28;20022;-73
2021/08/27 04:36:36;;;;;;;11.55;5.60;;;;;;;12.01;100.00;98581.22;5013610;28;20395;-72
2021/08/27 04:39:02;;;;;;;11.70;5.18;;;;;;;11.92;100.00;98571.72;5012521;28;20041;-72
2021/08/27 04:41:27;;;;;;;9.63;4.93;;;;;;;12.07;100.00;98598.50;5014611;28;20026;-72
2021/08/27 04:43:52;;;;;;;11.43;5.97;;;;;;;12.06;100.00;98594.16;4995209;28;20034;-72
2021/08/27 04:46:18;;;;;;;7.28;4.63;;;;;;;12.15;100.00;98610.97;5013882;28;20442;-72
2021/08/27 04:48:45;;;;;;;11.82;5.55;;;;;;;12.24;100.00;98606.97;5013266;28;20022;-73
2021/08/27 04:51:10;;;;;;;10.85;6.00;;;;;;;12.32;100.00;98605.88;5014020;28;20072;-73
2021/08/27 04:53:35;;;;;;;10.05;6.03;;;;;;;12.32;100.00;98609.41;5015050;28;20030;-72
2021/08/27 04:56:01;;;;;;;13.88;6.22;;;;;;;12.28;100.00;98608.19;5026061;28;20064;-71
2021/08/27 04:58:26;;;;;;;10.20;5.85;;;;;;;12.33;100.00;98615.66;5010237;28;20026;-71
2021/08/27 05:00:53;;;;;;;14.70;5.93;;;;;;;12.27;100.00;98606.53;5015258;28;20100;-74
2021/08/27 05:03:19;;;;;;;10.48;6.10;;;;;;;12.39;100.00;98634.63;5024457;28;20029;-74
2021/08/27 05:05:44;;;;;;;12.57;6.43;;;;;;;12.47;100.00;98639.78;5024138;28;20021;-75
2021/08/27 05:08:10;;;;;;;14.88;6.57;;;;;;;12.48;100.00;98635.19;5025817;28;20036;-75
2021/08/27 05:10:35;;;;;;;10.50;6.18;;;;;;;12.51;100.00;98637.44;5026589;28;20026;-74
2021/08/27 05:13:00;;;;;;;9.95;5.75;;;;;;;12.54;100.00;98633.47;5026525;28;20384;-74
2021/08/27 05:15:27;;;;;;;11.32;6.43;;;;;;;12.70;100.00;98643.78;5026558;28;20034;-74
2021/08/27 05:17:52;;;;;;;12.50;5.85;;;;;;;12.59;100.00;98622.78;5027951;28;20018;-75
2021/08/27 05:20:17;;;;;;;15.25;6.55;;;;;;;12.65;100.00;98635.47;5025911;28;20025;-70
2021/08/27 05:22:43;;;;;;;16.10;6.10;;;;;;;12.84;100.00;98652.66;5025258;28;20026;-73
2021/08/27 05:25:09;;;;;;;11.02;6.05;;;;;;;12.77;100.00;98638.31;5022278;28;20042;-74
2021/08/27 05:27:38;;;;;;;12.07;6.32;;;;;;;12.96;100.00;98637.28;5013774;28;20109;-73
2021/08/27 05:30:09;;;;;;;10.50;6.15;;;;;;;12.88;100.00;98638.41;5014993;28;20120;-74
2021/08/27 05:32:34;;;;;;;12.98;5.90;;;;;;;13.07;100.00;98650.16;5013692;28;20029;-75
2021/08/27 05:35:00;;;;;;;11.85;6.22;;;;;;;13.05;100.00;98646.81;5005324;28;20381;-71
2021/08/27 05:37:25;;;;;;;9.73;5.65;;;;;;;13.19;100.00;98647.53;5014352;28;20018;-70
2021/08/27 05:39:51;;;;;;;10.20;5.47;;;;;;;13.44;100.00;98654.81;5002802;28;20045;-71
2021/08/27 05:42:17;;;;;;;9.73;5.50;;;;;;;13.58;99.72;98656.34;5004704;28;20512;-72
2021/08/27 05:44:42;;;;;;;9.35;5.32;;;;;;;13.74;98.45;98649.47;5008777;28;20376;-72
2021/08/27 05:47:08;;;;;;;12.30;5.32;;;;;;;13.82;97.09;98641.81;4994872;28;20037;-72
2021/08/27 05:49:34;;;;;;;10.65;4.82;;;;;;;14.35;93.84;98642.16;5006334;28;20023;-71
2021/08/27 05:51:59;;;;;;;6.60;4.50;;;;;;;15.59;87.37;98649.53;5002504;28;20030;-70
2021/08/27 05:54:25;;;;;;;7.57;4.38;;;;;;;17.08;79.90;98654.00;5009917;28;20049;-71
2021/08/27 05:56:50;;;;;;;7.93;3.63;;;;;;;18.78;70.21;98625.75;5013355;28;20049;-74
2021/08/27 05:59:15;;;;;;;8.55;3.53;;;;;;;20.02;65.69;98643.84;5009796;28;20057;-74
2021/08/27 06:01:40;;;;;;;6.32;3.33;;;;;;;20.62;61.85;98631.38;5008497;28;20030;-74
2021/08/27 06:04:06;;;;;;;5.35;3.40;;;;;;;21.29;59.93;98642.34;5012535;28;20084;-70
2021/08/27 06:06:32;;;;;;;4.07;2.63;;;;;;;21.56;58.28;98640.13;5011811;28;20097;-74
2021/08/27 06:08:57;;;;;;;7.50;2.78;;;;;;;22.05;55.37;98639.38;5010458;28;20029;-72
2021/08/27 06:11:23;;;;;;;5.65;2.70;;;;;;;22.17;55.78;98646.53;5011917;28;20022;-72
2021/08/27 06:13:48;;;;;;;4.13;2.35;;;;;;;22.63;54.39;98638.81;5003624;28;20022;-73
2021/08/27 06:16:13;;;;;;;6.28;2.30;;;;;;;23.19;53.62;98643.94;5006992;28;20026;-69
2021/08/27 06:18:39;;;;;;;6.78;2.20;;;;;;;24.14;50.01;98643.47;5015427;28;20097;-69
2021/08/27 06:21:04;;;;;;;5.35;2.40;;;;;;;24.62;48.12;98641.41;5007915;28;20495;-69
2021/08/27 06:23:29;;;;;;;4.20;2.13;;;;;;;23.86;50.01;98629.44;5012891;28;20032;-69
2021/08/27 06:25:55;;;;;;;3.35;2.10;;;;;;;23.25;50.71;98641.94;5009560;28;20033;-70
2021/08/27 06:28:20;;;;;;;3.25;1.98;;;;;;;22.84;50.21;98650.53;5004925;28;20033;-68
2021/08/27 06:30:45;;;;;;;4.53;2.20;;;;;;;23.53;49.81;98647.75;5003084;28;20033;-70
2021/08/27 06:33:11;;;;;;;7.95;2.20;;;;;;;23.92;48.66;98638.47;5000374;28;20033;-70
2021/08/27 06:35:36;;;;;;;5.15;2.05;;;;;;;24.70;48.28;98651.00;5002097;28;20369;-66
2021/08/27 06:38:21;;;;;;;6.72;2.03;;;;;;;24.92;46.91;98655.94;4999598;28;20065;-69
2021/08/27 06:40:50;;;;;;;5.45;1.67;;;;;;;25.37;45.38;98656.28;5005544;28;20018;-72
2021/08/27 06:43:15;;;;;;;2.92;1.70;;;;;;;24.20;47.66;98656.91;5004993;28;20506;-75
2021/08/27 06:45:41;;;;;;;5.82;2.30;;;;;;;23.11;50.00;98663.06;5012060;28;20034;-71
2021/08/27 06:48:06;;;;;;;5.38;2.10;;;;;;;21.02;54.51;98671.00;5008659;28;20045;-70
2021/08/27 06:50:32;;;;;;;3.63;1.95;;;;;;;18.73;61.48;98682.41;5007651;28;20017;-73
2021/08/27 06:52:58;;;;;;;5.38;2.45;;;;;;;17.38;65.52;98696.59;5012547;28;20029;-71
2021/08/27 06:55:24;;;;;;;5.97;2.58;;;;;;;16.67;70.75;98699.75;5004403;28;20069;-74
2021/08/27 06:57:49;;;;;;;6.22;2.50;;;;;;;18.31;66.64;98685.78;5011539;28;20053;-75
2021/08/27 07:00:15;;;;;;;3.08;2.20;;;;;;;18.45;64.43;98673.38;5009828;28;20030;-74
2021/08/27 07:02:43;;;;;;;4.57;2.05;;;;;;;18.28;65.04;98689.06;5008738;28;20030;-75
2021/08/27 07:05:09;;;;;;;7.65;2.70;;;;;;;17.50;66.75;98675.41;5016669;28;20025;-71
2021/08/27 07:07:34;;;;;;;4.35;2.25;;;;;;;18.00;65.87;98685.44;5029914;28;20029;-73
2021/08/27 07:10:00;;;;;;;5.47;2.28;;;;;;;21.33;56.13;98673.72;5008339;28;20030;-73
2021/08/27 07:12:25;;;;;;;4.07;1.80;;;;;;;25.25;45.95;98669.78;5014218;28;20040;-72
2021/08/27 07:14:50;;;;;;;4.05;1.95;;;;;;;25.95;43.31;98671.56;5015637;28;20079;-71
2021/08/27 07:17:20;;;;;;;4.18;1.90;;;;;;;25.80;43.19;98672.66;5008064;28;20495;-69
2021/08/27 07:19:48;;;;;;;;;;;;;;;24.83;45.28;98679.84;5014839;28;20535;-71
2021/08/27 07:22:14;;;;;;;5.13;1.83;;;;;;;23.48;47.92;98664.38;5014443;28;19909;-72
2021/08/27 07:24:39;;;;;;;4.40;1.90;;;;;;;22.81;48.69;98681.44;5014513;28;20030;-72
2021/08/27 07:27:05;;;;;;;4.78;1.70;;;;;;;21.67;52.71;98685.81;5015160;28;20053;-73
2021/08/27 07:29:30;;;;;;;4.72;1.38;;;;;;;19.95;56.90;98687.19;5014464;28;20049;-70
2021/08/27 07:31:56;;;;;;;4.72;1.65;;;;;;;18.71;60.60;98690.91;5011046;28;20090;-73
2021/08/27 07:34:21;;;;;;;3.28;1.60;;;;;;;18.13;62.85;98692.44;5003739;28;20018;-72
2021/08/27 07:36:46;;;;;;;5.50;2.05;;;;;;;17.60;63.49;98702.91;4996945;28;20078;-73
2021/08/27 07:39:11;;;;;;;3.63;1.70;;;;;;;17.47;65.40;98698.63;5015554;28;20026;-71
2021/08/27 07:41:37;;;;;;;4.57;1.80;;;;;;;18.65;63.71;98682.88;5010427;28;20025;-72
2021/08/27 07:44:03;;;;;;;2.95;1.67;;;;;;;22.70;52.74;98686.22;5010045;28;20026;-74
2021/08/27 07:46:28;;;;;;;6.28;1.95;;;;;;;24.02;49.02;98683.38;5004553;28;20483;-73
2021/08/27 07:48:53;;;;;;;2.45;1.45;;;;;;;22.23;50.11;98675.72;5012350;28;20065;-70
2021/08/27 07:51:19;;;;;;;2.47;1.13;;;;;;;23.26;48.34;98673.13;5013784;28;20021;-74
2021/08/27 07:53:44;;;;;;;3.88;1.10;;;;;;;23.52;47.26;98687.50;5014261;28;20026;-74
2021/08/27 07:56:09;;;;;;;5.22;1.45;;;;;;;21.28;52.78;98704.00;5012590;28;20109;-74
2021/08/27 07:58:35;;;;;;;2.50;1.30;;;;;;;19.43;57.56;98703.31;5008757;28;20034;-74
2021/08/27 08:01:01;;;;;;;4.05;1.58;;;;;;;18.73;60.22;98710.66;5008633;28;20032;-72
2021/08/27 08:03:26;;;;;;;6.15;1.90;;;;;;;18.41;63.77;98713.31;5006585;28;20034;-72
2021/08/27 08:05:51;;;;;;;3.50;1.50;;;;;;;19.34;61.96;98715.88;5002651;28;20375;-73
2021/08/27 08:08:17;;;;;;;3.42;1.20;;;;;;;21.94;53.08;98706.66;5014198;28;20033;-74
2021/08/27 08:10:42;;;;;;;5.13;1.27;;;;;;;21.84;52.11;98703.94;5014061;28;20033;-72
2021/08/27 08:13:07;;;;;;;2.85;1.00;;;;;;;21.02;52.49;98695.75;5010918;28;20034;-73
2021/08/27 08:15:33;;;;;;;3.03;1.33;;;;;;;21.19;54.31;98704.53;5014974;28;20116;-73
2021/08/27 08:18:00;;;;;;;3.13;1.08;;;;;;;23.30;49.96;98696.28;5012843;28;20029;-73
2021/08/27 08:20:26;;;;;;;3.00;1.08;;;;;;;22.34;49.98;98699.38;5013543;28;20484;-72
2021/08/27 08:22:51;;;;;;;3.25;1.10;;;;;;;20.73;53.46;98710.00;5013961;28;20037;-72
2021/08/27 08:25:17;;;;;;;4.13;1.13;;;;;;;19.15;57.00;98696.25;5014871;28;20033;-72
2021/08/27 08:27:42;;;;;;;3.28;1.42;;;;;;;18.41;60.06;98710.56;5010573;28;20487;-72
2021/08/27 08:30:08;;;;;;;3.88;1.30;;;;;;;19.52;59.13;98714.63;5012117;28;20037;-71
2021/08/27 08:32:33;;;;;;;3.20;1.20;;;;;;;23.27;50.21;98699.63;5014484;28;20032;-70
2021/08/27 08:34:59;;;;;;;3.85;1.10;;;;;;;23.19;49.36;98704.66;5008067;28;20053;-72
2021/08/27 08:37:25;;;;;;;5.68;1.13;;;;;;;21.74;51.53;98712.22;5012884;28;20101;-68
2021/08/27 08:39:50;;;;;;;3.33;1.30;;;;;;;19.98;55.74;98711.34;5028110;28;20048;-74
2021/08/27 08:42:16;;;;;;;2.80;1.00;;;;;;;19.00;59.40;98702.44;5009345;28;20539;-77
2021/08/27 08:44:41;;;;;;;4.10;1.10;;;;;;;18.67;60.13;98717.16;5012203;28;20041;-76
2021/08/27 08:47:08;;;;;;;2.25;1.00;;;;;;;18.27;60.46;98717.53;5012685;28;20028;-80
2021/08/27 08:49:36;;;;;;;8.35;1.20;;;;;;;18.86;59.59;98708.59;5012501;28;20549;-77
2021/08/27 08:52:02;;;;;;;3.03;1.00;;;;;;;22.72;50.05;98714.34;5012546;28;20034;-75
2021/08/27 08:54:28;;;;;;;3.30;0.88;;;;;;;25.61;43.69;98694.91;5011209;28;20064;-75
2021/08/27 08:56:55;;;;;;;0.88;0.52;;;;;;;27.17;39.48;98701.41;5012938;28;20071;-74
2021/08/27 08:59:21;;;;;;;3.95;0.75;;;;;;;25.67;41.58;98698.41;5012768;28;20033;-77
2021/08/27 09:01:46;;;;;;;2.33;0.85;;;;;;;22.94;46.87;98694.59;5011475;28;20026;-76
2021/08/27 09:04:11;;;;;;;4.10;1.00;;;;;;;21.82;49.85;98726.25;5015145;28;20037;-74
2021/08/27 09:06:37;;;;;;;3.20;1.00;;;;;;;20.90;52.62;98708.94;5012665;28;20026;-75
2021/08/27 09:09:03;;;;;;;4.13;0.95;;;;;;;20.24;55.16;98723.28;5013213;28;20392;-74
2021/08/27 09:11:29;;;;;;;2.58;0.88;;;;;;;19.72;56.51;98721.38;5014592;28;20037;-75
2021/08/27 09:14:04;;;;;;;4.00;1.00;;;;;;;19.21;58.20;98719.88;5014574;28;20038;-75
2021/08/27 09:16:34;;;;;;;7.45;1.23;;;;;;;19.70;57.56;98719.72;5012994;28;20033;-74
2021/08/27 09:19:00;;;;;;;7.22;1.17;;;;;;;19.83;56.03;98721.19;5013090;28;20028;-74
2021/08/27 09:21:30;;;;;;;6.72;1.20;;;;;;;20.82;52.46;98721.28;5010830;28;20040;-74
2021/08/27 09:24:26;;;;;;;4.05;1.58;;;;;;;23.55;47.56;98715.38;5011669;28;20065;-75
2021/08/27 09:26:55;;;;;;;4.45;1.10;;;;;;;25.74;42.88;98712.69;5008736;28;20030;-76
2021/08/27 09:29:42;;;;;;;3.00;0.80;;;;;;;27.79;37.34;98710.91;5004579;28;20061;-75
2021/08/27 09:32:23;;;;;;;6.60;0.90;;;;;;;29.94;34.83;98707.88;5000869;28;20030;-74
2021/08/27 09:35:06;;;;;;;4.45;1.15;;;;;;;30.08;32.63;98702.09;5011713;28;20022;-72
2021/08/27 09:37:58;;;;;;;2.22;0.90;;;;;;;31.13;31.66;98705.91;5012098;28;20380;-73
2021/08/27 09:40:27;;;;;;;3.47;0.90;;;;;;;31.85;30.57;98709.28;5000880;28;20038;-72
2021/08/27 09:42:54;;;;;;;5.68;1.30;;;;;;;32.00;29.35;98699.44;4994684;28;20390;-72
2021/08/27 09:45:31;;;;;;;4.25;1.08;;;;;;;31.28;31.29;98709.22;5003741;28;20033;-72
2021/08/27 09:47:59;;;;;;;4.80;1.10;;;;;;;28.13;34.83;98713.06;5006100;28;20038;-71
2021/08/27 09:50:28;;;;;;;7.43;0.90;;;;;;;27.06;36.61;98716.59;5000835;28;20034;-71
2021/08/27 09:53:05;;;;;;;;;;;;;;;28.47;33.76;98711.56;5017819;28;20097;-71
2021/08/27 09:55:33;;;;;;;3.10;1.00;;;;;;;28.36;34.45;98708.22;5005933;28;19913;-70
2021/08/27 09:58:02;;;;;;;3.50;0.80;;;;;;;29.43;34.48;98702.09;4998934;28;20075;-71
2021/08/27 10:00:28;;;;;;;4.32;1.20;;;;;;;26.84;36.72;98709.91;4998687;28;20507;-71
2021/08/27 10:02:53;;;;;;;2.47;1.10;;;;;;;25.25;40.63;98711.31;5001728;28;20072;-71
2021/08/27 10:05:35;;;;;;;3.28;1.10;;;;;;;23.39;44.90;98709.16;4997063;28;20030;-71
2021/08/27 10:08:18;;;;;;;4.82;1.23;;;;;;;21.82;47.52;98719.91;5002039;28;20061;-72
2021/08/27 10:10:44;;;;;;;4.68;1.40;;;;;;;21.25;49.08;98710.88;4996840;28;20491;-73
2021/08/27 10:13:11;;;;;;;3.58;1.00;;;;;;;22.69;46.77;98716.84;5006298;28;20049;-73
2021/08/27 10:15:38;;;;;;;3.30;1.08;;;;;;;24.06;44.48;98705.75;5012477;28;20014;-76
2021/08/27 10:18:12;;;;;;;9.27;1.40;;;;;;;23.32;46.54;98708.69;5005755;28;20042;-72
2021/08/27 10:20:43;;;;;;;6.10;1.38;;;;;;;22.91;44.77;98710.91;5013235;28;20455;-72
2021/08/27 10:23:11;;;;;;;3.38;1.00;;;;;;;22.10;46.47;98716.53;5012833;28;20048;-72
2021/08/27 10:25:38;;;;;;;6.55;1.38;;;;;;;22.00;47.24;98707.47;5009141;28;20026;-77
2021/08/27 10:28:05;;;;;;;2.33;1.13;;;;;;;21.63;48.01;98700.41;5012411;28;20026;-75
2021/08/27 10:30:51;;;;;;;2.28;1.00;;;;;;;21.70;48.46;98711.13;5012268;28;20030;-76
2021/08/27 10:33:38;;;;;;;7.97;1.23;;;;;;;21.88;48.44;98702.28;5013168;28;20037;-76
2021/08/27 10:36:03;;;;;;;5.20;1.10;;;;;;;23.38;46.05;98699.22;5011204;28;20109;-76
2021/08/27 10:38:42;;;;;;;5.32;0.90;;;;;;;26.68;37.93;98700.28;5011499;28;20049;-76
2021/08/27 10:41:20;;;;;;;;;;;;;;;27.39;36.29;98697.78;5012570;28;20022;-74
2021/08/27 10:43:54;;;;;;;2.70;0.90;;;;;;;28.65;34.60;98681.78;5006866;28;19916;-73
2021/08/27 10:46:20;;;;;;;3.90;0.90;;;;;;;30.45;31.87;98686.50;5015136;28;20034;-74
2021/08/27 10:48:53;;;;;;;3.97;1.08;;;;;;;31.80;30.12;98689.94;5014625;28;20104;-74
2021/08/27 10:51:39;;;;;;;5.07;1.23;;;;;;;29.42;32.49;98680.97;5014206;28;20036;-75
2021/08/27 10:54:06;;;;;;;3.78;1.08;;;;;;;28.16;34.86;98690.16;5027746;23;20073;-71
2021/08/27 10:56:45;;;;;;;5.60;0.90;;;;;;;29.44;32.71;98692.59;4996529;28;20015;-74
2021/08/27 10:59:11;;;;;;;;;;;;;;;31.16;31.39;98688.44;5001822;28;20072;-72
2021/08/27 11:01:39;;;;;;;3.47;1.02;;;;;;;32.01;29.56;98678.66;5002657;28;19913;-72
2021/08/27 11:04:06;;;;;;;1.33;0.85;;;;;;;32.53;27.33;98677.97;5005936;28;20073;-74
2021/08/27 11:06:41;;;;;;;1.40;0.73;;;;;;;33.34;27.59;98674.38;5004103;28;20120;-72
2021/08/27 11:09:20;;;;;;;2.28;0.40;;;;;;;33.86;25.88;98666.97;5015899;28;20068;-72
2021/08/27 11:11:46;;;;;;;2.30;0.75;;;;;;;30.14;30.76;98678.44;5015796;28;20034;-75
2021/08/27 11:14:21;;;;;;;2.08;0.70;;;;;;;29.16;32.38;98688.53;5013400;28;20034;-75
2021/08/27 11:16:58;;;;;;;2.05;0.77;;;;;;;28.35;33.52;98684.34;5013093;28;20053;-73
2021/08/27 11:19:28;;;;;;;4.40;1.00;;;;;;;26.59;36.70;98691.03;5015046;28;20505;-73
2021/08/27 11:22:11;;;;;;;2.10;0.80;;;;;;;24.47;39.95;98686.75;5014715;28;20034;-72
2021/08/27 11:24:41;;;;;;;4.07;1.02;;;;;;;23.57;42.40;98698.50;5013589;28;20372;-72
2021/08/27 11:27:25;;;;;;;3.38;1.10;;;;;;;22.97;44.40;98702.31;5013296;28;20025;-74
2021/08/27 11:29:51;;;;;;;4.15;0.90;;;;;;;22.78;44.73;98698.56;5012892;28;20067;-74
2021/08/27 11:32:17;;;;;;;7.28;1.13;;;;;;;22.16;46.28;98702.72;5014215;28;20025;-74
2021/08/27 11:34:53;;;;;;;1.67;0.95;;;;;;;21.73;46.64;98667.34;5015253;28;20029;-75